Altoona, Pennsylvania
Current Conditions -  °F | °C
As of 12:53 PM on Friday 28 Nov 2014 (Local Time) from KAOO Reporting Station
Broken Clouds Broken Clouds  
Wind Chill: -10°   Ceiling: 3900
Heat Index: -3°   Visibility: 10mi
Dew Point: -11°   Wind: 15mph
Humidity: 55%   Direction: 290°WNW
Pressure: 30.22"   Gusts: NA
Location:  40.51°N, 78.4°W
Report Text: KAOO 281753Z AUTO 29013KT 10SM BKN039 M03/M11 A3022 RMK AO2 SLP254 T10331111 11028 21039 58005
Loading
Personal Weather Stations






























Interactive Weather Map New forecast layout! Learn more

10-Day Weather Forecast

Advertisements
Track Severe Weather on mobile